createdAt,value
2019-03-28T00:01:42.093Z,61.90
2019-03-28T00:04:11.925Z,61.90
2019-03-28T00:06:41.499Z,62.70
2019-03-28T00:09:11.127Z,63.10
2019-03-28T00:11:40.810Z,64.10
2019-03-28T00:14:10.471Z,62.90
2019-03-28T00:16:40.222Z,63.10
2019-03-28T00:19:09.894Z,63.00
2019-03-28T00:21:39.467Z,61.80
2019-03-28T00:24:11.002Z,61.30
2019-03-28T00:26:40.581Z,62.20
2019-03-28T00:29:10.148Z,62.20
2019-03-28T00:31:39.831Z,62.60
2019-03-28T00:34:10.192Z,63.10
2019-03-28T00:36:39.870Z,63.70
2019-03-28T00:39:09.556Z,63.30
2019-03-28T00:41:39.114Z,63.60
2019-03-28T00:44:08.996Z,64.00
2019-03-28T00:46:38.557Z,63.10
2019-03-28T00:49:08.240Z,61.40
2019-03-28T00:51:43.041Z,60.70
2019-03-28T00:54:11.835Z,61.90
2019-03-28T00:56:46.848Z,61.60
2019-03-28T00:59:12.626Z,62.90
2019-03-28T01:01:42.184Z,63.90
2019-03-28T01:04:11.968Z,64.60
2019-03-28T01:06:41.925Z,64.40
2019-03-28T01:09:11.502Z,64.10
2019-03-28T01:11:41.575Z,64.00
2019-03-28T01:14:11.150Z,63.80
2019-03-28T01:16:40.984Z,63.30
2019-03-28T01:19:11.236Z,62.80
2019-03-28T01:21:41.393Z,61.90
2019-03-28T01:24:11.241Z,61.60
2019-03-28T01:26:40.804Z,61.60
2019-03-28T01:29:10.674Z,62.50
2019-03-28T01:31:40.443Z,62.20
2019-03-28T01:34:10.100Z,62.60
2019-03-28T01:36:40.292Z,62.90
2019-03-28T01:39:10.354Z,62.80
2019-03-28T01:41:41.144Z,62.90
2019-03-28T01:44:11.033Z,64.20
2019-03-28T02:07:38.346Z,66.70
2019-03-28T02:10:08.287Z,67.00
2019-03-28T02:12:37.944Z,67.40
2019-03-28T02:15:09.059Z,67.00
2019-03-28T02:17:39.016Z,66.30
2019-03-28T02:20:10.325Z,66.30
2019-03-28T02:22:40.306Z,66.70
2019-03-28T02:25:10.074Z,66.70
2019-03-28T02:27:39.660Z,66.70
2019-03-28T02:30:09.975Z,66.90
2019-03-28T02:32:39.539Z,67.80
2019-03-28T02:35:09.789Z,67.80
2019-03-28T02:37:39.537Z,67.30
2019-03-28T02:40:09.591Z,67.50
2019-03-28T02:42:39.453Z,67.80
2019-03-28T02:45:09.220Z,68.00
2019-03-28T02:47:38.859Z,68.50
2019-03-28T02:50:09.166Z,67.80
2019-03-28T02:52:38.739Z,67.80
2019-03-28T02:55:08.837Z,67.80
2019-03-28T02:57:42.086Z,67.60
2019-03-28T03:00:11.124Z,68.60
2019-03-28T03:02:40.679Z,69.10
2019-03-28T03:05:10.402Z,68.90
2019-03-28T03:07:40.008Z,69.30
2019-03-28T03:10:10.296Z,69.60
2019-03-28T03:12:39.871Z,69.40
2019-03-28T03:15:10.266Z,70.50
2019-03-28T03:17:39.952Z,70.50
2019-03-28T03:20:10.055Z,70.70
2019-03-28T03:22:39.901Z,70.90
2019-03-28T03:25:09.915Z,71.10
2019-03-28T03:27:56.228Z,71.00
2019-03-28T03:30:10.830Z,70.80
2019-03-28T03:32:40.419Z,70.40
2019-03-28T03:35:11.222Z,70.10
2019-03-28T03:37:41.007Z,69.80
2019-03-28T03:40:11.321Z,69.90
2019-03-28T03:42:40.998Z,70.30
2019-03-28T03:45:10.837Z,69.90
2019-03-28T03:47:43.414Z,70.20
2019-03-28T03:50:16.251Z,70.50
2019-03-28T03:52:45.831Z,70.40
2019-03-28T03:55:15.517Z,70.50
2019-03-28T03:57:45.401Z,71.00
2019-03-28T04:00:18.041Z,70.10
2019-03-28T04:02:47.708Z,69.80
2019-03-28T04:05:17.593Z,70.60
2019-03-28T04:07:47.594Z,70.80
2019-03-28T04:10:17.085Z,71.20
2019-03-28T04:12:46.971Z,71.00
2019-03-28T04:15:16.637Z,70.50
2019-03-28T04:17:47.742Z,70.90
2019-03-28T04:20:17.681Z,70.90
2019-03-28T04:22:47.532Z,70.60
2019-03-28T04:25:17.086Z,70.90
2019-03-28T04:27:47.057Z,70.90
2019-03-28T04:30:16.834Z,70.60
2019-03-28T04:32:46.845Z,70.00
2019-03-28T04:35:16.594Z,70.20
2019-03-28T04:37:46.264Z,70.40
2019-03-28T04:40:16.119Z,70.90
2019-03-28T04:42:46.168Z,71.30
2019-03-28T04:45:16.155Z,71.60
2019-03-28T04:47:46.002Z,71.90
2019-03-28T04:50:15.623Z,71.90
2019-03-28T04:52:45.625Z,71.80
2019-03-28T04:55:15.476Z,71.50
2019-03-28T04:57:45.351Z,71.80
2019-03-28T05:00:16.066Z,72.00
2019-03-28T05:02:46.120Z,71.10
2019-03-28T05:05:15.949Z,71.20
2019-03-28T05:07:45.527Z,71.00
2019-03-28T05:10:15.429Z,71.30
2019-03-28T05:12:45.457Z,71.30
2019-03-28T05:15:15.451Z,71.50
2019-03-28T05:17:45.541Z,71.80
2019-03-28T05:20:15.309Z,71.30
2019-03-28T05:22:45.294Z,71.20
2019-03-28T05:25:15.165Z,70.80
2019-03-28T05:27:45.012Z,70.60
2019-03-28T05:30:14.824Z,70.30
2019-03-28T05:32:44.336Z,70.80
2019-03-28T05:35:14.171Z,70.60
2019-03-28T05:37:43.927Z,70.80
2019-03-28T05:40:13.891Z,70.70
2019-03-28T05:42:43.565Z,70.70
2019-03-28T05:45:13.207Z,70.10
2019-03-28T05:47:42.811Z,70.80
2019-03-28T05:50:12.532Z,71.50
2019-03-28T05:52:42.032Z,71.80
2019-03-28T05:55:12.192Z,72.10
2019-03-28T05:57:42.240Z,72.20
2019-03-28T06:00:13.549Z,72.50
2019-03-28T06:02:43.731Z,72.00
2019-03-28T06:05:13.385Z,71.60
2019-03-28T06:07:42.903Z,71.60
2019-03-28T06:10:16.117Z,70.80
2019-03-28T06:12:44.312Z,71.00
2019-03-28T06:15:14.162Z,70.60
2019-03-28T06:17:43.735Z,70.30
2019-03-28T06:20:13.874Z,70.60
2019-03-28T06:22:43.658Z,70.00
2019-03-28T06:25:13.328Z,69.50
2019-03-28T06:27:43.085Z,69.70
2019-03-28T06:30:13.509Z,70.40
2019-03-28T06:32:43.694Z,70.60
2019-03-28T06:35:13.782Z,70.80
2019-03-28T06:37:43.934Z,71.30
2019-03-28T06:40:13.950Z,71.50
2019-03-28T06:42:43.799Z,71.00
2019-03-28T09:27:24.558Z,47.70
2019-03-28T09:29:54.148Z,46.70
2019-03-28T09:32:24.648Z,45.10
2019-03-28T09:34:54.490Z,48.70
2019-03-28T09:37:24.371Z,48.80
2019-03-28T09:39:53.909Z,51.10
2019-03-28T09:42:23.483Z,49.50
2019-03-28T09:44:53.087Z,49.00
2019-03-28T09:47:23.028Z,52.20
2019-03-28T09:49:52.904Z,47.70
2019-03-28T09:52:22.588Z,47.00
2019-03-28T09:54:52.491Z,49.40
2019-03-28T09:57:22.362Z,47.80
2019-03-28T09:59:52.174Z,46.80
2019-03-28T10:02:21.830Z,48.00
2019-03-28T10:04:51.402Z,47.20
2019-03-28T10:07:21.496Z,47.20
2019-03-28T10:09:51.444Z,47.20
2019-03-28T10:12:21.264Z,46.20
2019-03-28T10:14:51.160Z,49.20
2019-03-28T10:17:20.659Z,52.10
2019-03-28T10:19:50.233Z,51.30
2019-03-28T10:22:22.258Z,51.90
2019-03-28T10:24:51.054Z,48.10
2019-03-28T10:27:20.725Z,54.40
2019-03-28T10:29:50.888Z,50.80
2019-03-28T10:32:20.775Z,48.90
2019-03-28T10:34:51.145Z,46.90
2019-03-28T10:37:20.813Z,49.40
2019-03-28T10:39:50.577Z,42.10
2019-03-28T10:42:20.682Z,46.30
2019-03-28T10:44:50.611Z,49.80
2019-03-28T10:47:21.090Z,48.40
2019-03-28T10:49:50.647Z,48.30
2019-03-28T10:52:20.512Z,48.10
2019-03-28T10:54:52.035Z,48.10
2019-03-28T10:57:29.994Z,48.40
2019-03-28T10:59:53.118Z,43.90
2019-03-28T11:02:22.801Z,43.00
2019-03-28T11:04:52.369Z,45.50
2019-03-28T11:07:21.947Z,44.10
2019-03-28T11:09:51.517Z,40.10
2019-03-28T11:12:21.094Z,37.30
2019-03-28T11:14:50.589Z,42.40
2019-03-28T11:17:20.469Z,46.10
2019-03-28T11:19:50.026Z,45.10
2019-03-28T11:22:19.826Z,43.90
2019-03-28T11:24:49.597Z,44.80
2019-03-28T11:27:19.538Z,41.30
2019-03-28T11:29:49.221Z,43.90
2019-03-28T11:32:18.946Z,40.60
2019-03-28T11:34:48.838Z,45.30
2019-03-28T11:37:26.086Z,45.10
2019-03-28T11:39:49.975Z,42.40
2019-03-28T11:42:19.751Z,41.90
2019-03-28T11:44:49.573Z,45.60
2019-03-28T11:47:22.049Z,47.50
2019-03-28T11:49:50.543Z,44.90
2019-03-28T11:52:20.224Z,39.80
2019-03-28T11:54:50.783Z,40.20
2019-03-28T11:57:20.282Z,40.80
2019-03-28T11:59:50.702Z,39.90
2019-03-28T12:02:20.805Z,42.20
2019-03-28T12:04:50.621Z,36.50
2019-03-28T12:07:20.541Z,40.30
2019-03-28T12:09:50.009Z,39.20
2019-03-28T12:12:19.785Z,37.50
2019-03-28T12:14:49.299Z,39.80
2019-03-28T12:17:19.132Z,41.10
2019-03-28T12:19:50.558Z,40.90
2019-03-28T12:22:20.436Z,41.50
2019-03-28T12:24:50.066Z,40.70
2019-03-28T12:27:19.656Z,34.90
2019-03-28T12:29:49.889Z,40.60
2019-03-28T12:32:19.860Z,39.50
2019-03-28T12:34:49.437Z,40.40
2019-03-28T12:37:19.026Z,33.60
2019-03-28T12:39:48.996Z,39.10
2019-03-28T12:42:18.668Z,34.40
2019-03-28T12:44:57.015Z,37.30
2019-03-28T12:47:19.716Z,38.50
2019-03-28T12:49:49.489Z,38.10
2019-03-28T12:52:19.110Z,37.90
2019-03-28T12:54:49.058Z,38.60
2019-03-28T12:57:18.577Z,35.70
2019-03-28T12:59:48.534Z,37.20
2019-03-28T13:02:30.054Z,35.20
2019-03-28T13:04:50.103Z,34.70
2019-03-28T13:07:19.882Z,37.20
2019-03-28T13:09:49.563Z,34.10
2019-03-28T13:12:19.204Z,33.90
2019-03-28T13:14:48.977Z,34.10
2019-03-28T13:17:18.548Z,32.90
2019-03-28T13:19:48.425Z,35.60
2019-03-28T13:22:18.105Z,37.00
2019-03-28T13:24:47.687Z,36.30
2019-03-28T13:27:18.128Z,32.30
2019-03-28T13:29:47.760Z,35.90
2019-03-28T13:32:17.536Z,30.60
2019-03-28T13:34:46.972Z,25.00
2019-03-28T13:37:16.738Z,25.10
2019-03-28T13:39:46.465Z,29.80
2019-03-28T13:42:15.906Z,28.20
2019-03-28T13:44:46.665Z,23.70
2019-03-28T13:47:16.192Z,22.30
2019-03-28T13:49:45.832Z,24.70
2019-03-28T13:52:15.997Z,21.80
2019-03-28T13:54:45.632Z,26.70
2019-03-28T13:57:15.463Z,23.40
2019-03-28T13:59:45.138Z,27.00
2019-03-28T14:02:15.023Z,29.50
2019-03-28T14:04:44.661Z,26.70
2019-03-28T14:07:17.067Z,34.60
2019-03-28T14:09:45.373Z,33.60
2019-03-28T14:12:15.090Z,33.50
2019-03-28T14:14:44.546Z,35.70
2019-03-28T14:17:14.085Z,35.70
2019-03-28T14:19:43.639Z,33.30
2019-03-28T14:22:13.107Z,35.50
2019-03-28T14:24:42.753Z,33.00
2019-03-28T14:27:12.333Z,36.50
2019-03-28T14:29:42.671Z,33.20
2019-03-28T14:32:12.347Z,31.80
2019-03-28T14:34:41.773Z,34.20
2019-03-28T14:37:11.227Z,35.30
2019-03-28T14:39:41.087Z,35.70
2019-03-28T14:42:11.059Z,35.80
2019-03-28T14:44:40.923Z,36.60
2019-03-28T14:47:10.683Z,33.50
2019-03-28T14:49:40.355Z,30.10
2019-03-28T14:52:10.515Z,32.40
2019-03-28T14:54:40.061Z,33.40
2019-03-28T14:57:10.970Z,30.20
2019-03-28T14:59:42.235Z,33.10
2019-03-28T15:02:11.971Z,33.00
2019-03-28T15:04:41.848Z,31.70
2019-03-28T15:07:11.442Z,33.90
2019-03-28T15:09:40.991Z,37.90
2019-03-28T15:12:10.445Z,32.40
2019-03-28T15:14:39.892Z,34.60
2019-03-28T15:17:09.629Z,32.00
2019-03-28T15:19:39.294Z,32.80
2019-03-28T15:22:08.965Z,35.90
2019-03-28T15:24:38.625Z,35.20
2019-03-28T15:27:08.083Z,36.40
2019-03-28T15:29:37.831Z,39.50
2019-03-28T15:32:07.208Z,39.50
2019-03-28T15:34:36.851Z,38.00
2019-03-28T15:37:06.610Z,39.80
2019-03-28T15:39:36.534Z,41.20
2019-03-28T15:42:06.204Z,40.60
2019-03-28T15:44:35.687Z,39.10
2019-03-28T15:47:05.128Z,39.10
2019-03-28T15:49:34.926Z,39.30
2019-03-28T15:52:05.218Z,41.70
2019-03-28T15:54:35.600Z,42.90
2019-03-28T15:57:05.261Z,43.80
2019-03-28T15:59:34.786Z,44.30
2019-03-28T16:02:04.627Z,43.80
2019-03-28T16:04:34.475Z,44.30
2019-03-28T16:07:05.019Z,44.20
2019-03-28T16:09:34.682Z,42.20
2019-03-28T16:12:04.134Z,42.70
2019-03-28T16:14:33.910Z,44.80
2019-03-28T16:17:03.553Z,43.10
2019-03-28T16:19:33.131Z,43.80
2019-03-28T16:22:04.303Z,43.70
2019-03-28T16:24:34.106Z,43.40
2019-03-28T16:27:03.895Z,42.10
2019-03-28T16:29:33.928Z,43.50
2019-03-28T16:32:04.088Z,42.60
2019-03-28T16:34:34.136Z,42.70
2019-03-28T16:37:03.968Z,44.70
2019-03-28T16:39:33.809Z,44.00
2019-03-28T16:42:03.240Z,44.80
2019-03-28T16:44:32.679Z,46.50
2019-03-28T16:47:02.071Z,47.60
2019-03-28T16:49:31.976Z,47.70
2019-03-28T16:52:01.744Z,46.70
2019-03-28T16:54:31.394Z,46.20
2019-03-28T16:57:01.135Z,46.00
2019-03-28T16:59:30.883Z,49.20
2019-03-28T17:02:00.516Z,51.00
2019-03-28T17:04:30.040Z,52.50
2019-03-28T17:07:00.873Z,52.00
2019-03-28T17:09:31.556Z,51.60
2019-03-28T17:12:01.563Z,53.20
2019-03-28T17:14:31.383Z,53.00
2019-03-28T17:17:02.944Z,53.60
2019-03-28T17:19:32.937Z,53.50
2019-03-28T17:22:02.670Z,54.20
2019-03-28T17:24:32.151Z,53.50
2019-03-28T17:27:01.636Z,54.20
2019-03-28T17:29:31.458Z,55.20
2019-03-28T17:32:01.146Z,58.30
2019-03-28T17:34:34.983Z,56.90
2019-03-28T17:37:02.240Z,57.00
2019-03-28T17:39:31.935Z,57.50
2019-03-28T17:42:01.577Z,57.50
2019-03-28T17:44:31.134Z,57.70
2019-03-28T17:47:01.031Z,58.50
2019-03-28T17:49:30.671Z,58.30
2019-03-28T17:52:01.112Z,59.50
2019-03-28T17:54:31.347Z,59.90
2019-03-28T17:57:00.882Z,59.60
2019-03-28T17:59:30.333Z,60.10
2019-03-28T18:01:59.921Z,61.50
2019-03-28T18:04:29.452Z,61.70
2019-03-28T18:06:59.298Z,62.20
2019-03-28T18:09:29.655Z,62.80
2019-03-28T18:11:59.244Z,62.60
2019-03-28T18:14:28.978Z,62.40
2019-03-28T18:16:59.554Z,63.30
2019-03-28T18:19:29.759Z,63.50
2019-03-28T18:22:03.683Z,64.00
2019-03-28T18:24:30.738Z,63.40
2019-03-28T18:27:00.518Z,64.20
2019-03-28T18:29:35.839Z,64.60
2019-03-28T18:32:04.247Z,65.00
2019-03-28T18:34:34.114Z,64.80
2019-03-28T18:37:03.658Z,65.40
2019-03-28T18:39:34.545Z,66.20
2019-03-28T18:42:05.094Z,66.70
2019-03-28T18:44:35.402Z,66.90
2019-03-28T18:47:05.077Z,67.20
2019-03-28T18:49:36.405Z,66.30
2019-03-28T18:52:07.484Z,66.10
2019-03-28T18:54:37.479Z,66.70
2019-03-28T18:57:07.256Z,67.50
2019-03-28T18:59:38.613Z,67.90
2019-03-28T19:02:08.264Z,68.90
2019-03-28T19:04:38.155Z,69.70
2019-03-28T19:07:07.617Z,69.50
2019-03-28T19:09:37.145Z,70.00
2019-03-28T19:12:06.897Z,70.30
2019-03-28T19:14:36.767Z,70.10
2019-03-28T19:17:07.888Z,69.90
2019-03-28T19:19:39.584Z,70.30
2019-03-28T19:22:08.999Z,70.60
2019-03-28T19:24:38.700Z,70.50
2019-03-28T19:27:08.199Z,70.60
2019-03-28T19:29:37.970Z,70.90
2019-03-28T19:32:07.654Z,71.10
2019-03-28T19:34:37.086Z,70.80
2019-03-28T19:37:07.184Z,70.50
2019-03-28T19:39:36.916Z,70.00
2019-03-28T19:42:06.586Z,69.10
2019-03-28T19:44:36.902Z,69.40
2019-03-28T19:47:06.657Z,70.40
2019-03-28T19:49:36.285Z,70.70
2019-03-28T19:52:05.886Z,71.70
2019-03-28T19:54:35.995Z,71.60
2019-03-28T19:57:05.816Z,71.50
2019-03-28T19:59:35.259Z,71.40
2019-03-28T20:02:04.924Z,72.10
2019-03-28T20:04:34.371Z,72.00
2019-03-28T20:07:03.872Z,71.90
2019-03-28T20:09:33.648Z,72.20
2019-03-28T20:12:03.702Z,72.20
2019-03-28T20:14:34.130Z,71.60
2019-03-28T20:17:04.047Z,70.80
2019-03-28T20:19:33.767Z,70.80
2019-03-28T20:22:04.675Z,70.70
2019-03-28T20:24:34.577Z,70.80
2019-03-28T20:27:04.697Z,70.30
2019-03-28T20:29:35.078Z,71.00
2019-03-28T20:32:06.746Z,71.90
2019-03-28T20:34:35.940Z,72.50
2019-03-28T20:37:05.479Z,72.70
2019-03-28T20:39:34.918Z,72.70
2019-03-28T20:42:04.475Z,72.40
2019-03-28T20:44:34.223Z,73.30
2019-03-28T20:47:03.772Z,73.70
2019-03-28T20:49:33.371Z,73.70
2019-03-28T20:52:02.915Z,73.80
2019-03-28T20:54:32.622Z,74.00
2019-03-28T20:57:04.666Z,74.00
2019-03-28T20:59:37.406Z,73.20
2019-03-28T21:02:07.130Z,72.90
2019-03-28T21:04:38.799Z,73.50
2019-03-28T21:07:08.348Z,73.90
2019-03-28T21:09:38.104Z,74.70
2019-03-28T21:12:07.495Z,75.20
2019-03-28T21:14:37.158Z,75.20
2019-03-28T21:17:07.093Z,74.70
2019-03-28T21:19:36.936Z,75.00
2019-03-28T21:22:06.645Z,75.30
2019-03-28T21:24:36.023Z,75.40
2019-03-28T21:27:06.906Z,75.30
2019-03-28T21:29:48.261Z,75.20
2019-03-28T21:32:09.558Z,75.70
2019-03-28T21:34:39.105Z,75.90
2019-03-28T21:37:08.589Z,76.50
2019-03-28T21:39:40.113Z,75.80
2019-03-28T21:42:09.650Z,75.90
2019-03-28T21:44:39.100Z,76.20
2019-03-28T21:47:08.488Z,76.30
2019-03-28T21:49:38.342Z,76.30
2019-03-28T21:52:07.849Z,76.00
2019-03-28T21:54:37.759Z,76.10
2019-03-28T21:57:07.464Z,76.00
2019-03-28T21:59:37.553Z,76.10
2019-03-28T22:02:07.372Z,75.80
2019-03-28T22:04:37.216Z,75.80
2019-03-28T22:07:07.062Z,75.10
2019-03-28T22:09:39.605Z,74.90
2019-03-28T22:12:07.948Z,75.10
2019-03-28T22:14:37.675Z,75.30
2019-03-28T22:17:07.413Z,75.60
2019-03-28T22:19:37.459Z,75.80
2019-03-28T22:22:07.193Z,76.00
2019-03-28T22:24:39.064Z,75.90
2019-03-28T22:27:07.707Z,76.20
2019-03-28T22:29:37.358Z,76.10
2019-03-28T22:32:07.083Z,75.80
2019-03-28T22:34:36.733Z,75.90
2019-03-28T22:37:06.271Z,76.10
2019-03-28T22:39:36.019Z,75.60
2019-03-28T22:42:05.695Z,75.60
2019-03-28T22:44:35.393Z,75.60
2019-03-28T22:47:07.134Z,76.20
2019-03-28T22:49:36.589Z,76.20
2019-03-28T22:52:06.126Z,76.20
2019-03-28T22:54:35.879Z,76.10
2019-03-28T22:57:05.583Z,76.10
2019-03-28T22:59:35.065Z,75.80
2019-03-28T23:02:05.393Z,76.10
2019-03-28T23:04:34.841Z,76.00
2019-03-28T23:07:10.975Z,76.10
2019-03-28T23:09:35.703Z,76.20
2019-03-28T23:12:05.632Z,76.50
2019-03-28T23:14:35.090Z,76.80
2019-03-28T23:17:06.598Z,76.80
2019-03-28T23:19:36.410Z,76.70
2019-03-28T23:22:05.846Z,76.80
2019-03-28T23:24:35.295Z,76.30
2019-03-28T23:27:04.754Z,76.00
2019-03-28T23:29:34.641Z,75.70
2019-03-28T23:32:04.361Z,75.50
2019-03-28T23:34:33.802Z,76.00
2019-03-28T23:37:03.545Z,76.50
2019-03-28T23:39:32.925Z,76.30
2019-03-28T23:42:02.975Z,76.20
2019-03-28T23:44:32.428Z,76.40
2019-03-28T23:47:03.741Z,76.90
2019-03-28T23:49:33.611Z,77.10
2019-03-28T23:52:03.639Z,77.40
2019-03-28T23:54:33.628Z,77.40
2019-03-28T23:57:03.474Z,77.50
2019-03-28T23:59:33.203Z,77.50
